HPG weather

Transener S.A. Heliport
Piedra Del Aguila, Neuquén Province, Argentina

Public forecast

Using degrees Celsius for public forecast. Weather courtesy of forecast.io.

Closest aviation weather report (METAR) to Transener S.A. Heliport

Report is more than 6 hours old.

Closest report is Aviador C. Campos Airport, 34.6 nm (64.1 km) W. Retrieved 2020/02/06 16:38 UTC (12 days ago):

SAZY 061638Z VRB05KT 9999 FEW050TCU BKN050 19/05 Q1016

Closest aviation forecast (TAF) to Transener S.A. Heliport

Forecast is more than 12 hours old.

Closest forecast is Aviador C. Campos Airport, 34.6 nm (64.1 km) W. Retrieved 2020-01-15 00:54 UTC (1 month ago):

TAF SAZY 142300Z 1500/1524 260200G35KT 9999 FEW045 TX17/1520Z TN03/1510Z BECMG 1500/1502 CAVOK BECMG 1509/1511 27010KT BECMG 1518/1520 26015KT